createdAt,value
2019-01-31T00:00:12.652Z,295.67
2019-01-31T00:03:31.309Z,301.97
2019-01-31T00:06:53.284Z,267.50
2019-01-31T00:10:00.321Z,271.50
2019-01-31T00:13:13.460Z,261.93
2019-01-31T00:16:37.603Z,268.23
2019-01-31T00:19:47.048Z,249.57
2019-01-31T00:23:11.763Z,246.57
2019-01-31T00:26:21.283Z,263.43
2019-01-31T00:29:42.517Z,311.43
2019-01-31T00:33:07.136Z,301.93
2019-01-31T00:36:16.638Z,294.77
2019-01-31T00:39:39.620Z,273.43
2019-01-31T00:42:55.322Z,255.87
2019-01-31T00:46:21.612Z,291.50
2019-01-31T00:49:28.468Z,268.80
2019-01-31T00:52:54.893Z,273.93
2019-01-31T00:56:26.020Z,253.70
2019-01-31T00:59:58.493Z,259.97
2019-01-31T01:03:38.325Z,269.63
2019-01-31T01:06:57.391Z,264.30
2019-01-31T01:10:09.970Z,266.70
2019-01-31T01:13:16.737Z,303.00
2019-01-31T01:16:29.382Z,312.27
2019-01-31T01:19:51.272Z,306.07
2019-01-31T01:23:00.924Z,287.60
2019-01-31T01:26:25.975Z,288.57
2019-01-31T01:29:35.663Z,271.97
2019-01-31T01:32:44.934Z,281.70
2019-01-31T01:35:57.764Z,279.43
2019-01-31T01:39:19.237Z,299.90
2019-01-31T01:42:28.052Z,282.63
2019-01-31T01:45:57.410Z,287.20
2019-01-31T01:49:12.888Z,287.10
2019-01-31T01:52:25.517Z,300.80
2019-01-31T01:55:51.941Z,306.57
2019-01-31T01:59:24.303Z,282.97
2019-01-31T02:02:56.423Z,285.17
2019-01-31T02:06:08.836Z,261.27
2019-01-31T02:09:33.866Z,305.00
2019-01-31T02:12:45.875Z,279.77
2019-01-31T02:15:52.742Z,309.13
2019-01-31T02:19:11.110Z,316.37
2019-01-31T02:22:20.888Z,296.80
2019-01-31T02:25:39.595Z,301.00
2019-01-31T02:28:52.242Z,325.60
2019-01-31T02:32:14.036Z,313.53
2019-01-31T02:35:26.916Z,293.67
2019-01-31T02:38:48.445Z,306.33
2019-01-31T02:42:03.824Z,304.50
2019-01-31T02:45:10.663Z,312.47
2019-01-31T02:48:20.443Z,337.30
2019-01-31T02:51:43.677Z,316.77
2019-01-31T02:54:59.373Z,292.10
2019-01-31T02:58:14.987Z,298.87
2019-01-31T03:01:39.774Z,325.40
2019-01-31T03:04:58.358Z,307.03
2019-01-31T03:08:11.006Z,306.47
2019-01-31T03:11:20.902Z,296.03
2019-01-31T03:14:27.728Z,303.50
2019-01-31T03:17:52.617Z,298.30
2019-01-31T03:21:07.986Z,303.90
2019-01-31T03:24:26.555Z,293.83
2019-01-31T03:27:45.363Z,305.40
2019-01-31T03:31:01.069Z,296.23
2019-01-31T03:34:13.542Z,287.20
2019-01-31T03:37:29.078Z,275.73
2019-01-31T03:40:38.637Z,274.57
2019-01-31T03:43:45.446Z,293.37
2019-01-31T03:47:13.434Z,306.43
2019-01-31T03:50:22.980Z,301.97
2019-01-31T03:53:38.502Z,286.70
2019-01-31T03:57:12.337Z,286.93
2019-01-31T04:00:30.468Z,297.37
2019-01-31T04:03:40.268Z,288.33
2019-01-31T04:06:43.962Z,297.77
2019-01-31T04:09:47.663Z,292.77
2019-01-31T04:12:51.322Z,285.13
2019-01-31T04:15:55.023Z,287.37
2019-01-31T04:18:58.657Z,279.93
2019-01-31T04:22:02.357Z,278.73
2019-01-31T04:25:06.053Z,283.27
2019-01-31T04:28:09.692Z,277.20
2019-01-31T04:31:13.422Z,272.40
2019-01-31T04:34:18.608Z,286.43
2019-01-31T04:37:22.303Z,270.33
2019-01-31T04:40:31.415Z,262.27
2019-01-31T04:43:31.314Z,279.57
2019-01-31T04:46:34.989Z,259.50
2019-01-31T04:49:38.732Z,260.33
2019-01-31T04:52:42.411Z,253.13
2019-01-31T04:55:46.052Z,253.03
2019-01-31T04:58:49.744Z,276.07
2019-01-31T05:01:53.584Z,257.63
2019-01-31T05:04:57.341Z,254.57
2019-01-31T05:08:00.977Z,241.97
2019-01-31T05:11:04.692Z,256.47
2019-01-31T05:14:08.357Z,263.57
2019-01-31T05:17:12.065Z,248.93
2019-01-31T05:20:17.334Z,227.70
2019-01-31T05:23:21.044Z,252.17
2019-01-31T05:26:24.735Z,253.47
2019-01-31T05:29:28.475Z,261.47
2019-01-31T05:32:32.144Z,258.57
2019-01-31T05:35:35.855Z,249.63
2019-01-31T05:38:39.491Z,253.00
2019-01-31T05:41:43.187Z,245.23
2019-01-31T05:44:46.832Z,239.97
2019-01-31T05:47:50.582Z,249.60
2019-01-31T05:50:54.629Z,241.70
2019-01-31T05:53:58.352Z,240.03
2019-01-31T05:57:02.862Z,241.47
2019-01-31T06:00:15.595Z,218.33
2019-01-31T06:03:19.234Z,227.27
2019-01-31T06:06:22.967Z,233.63
2019-01-31T06:09:26.635Z,250.30
2019-01-31T06:12:30.342Z,231.70
2019-01-31T06:15:34.042Z,221.47
2019-01-31T06:18:37.686Z,224.13
2019-01-31T06:21:41.391Z,228.47
2019-01-31T06:24:45.088Z,218.50
2019-01-31T06:27:48.743Z,242.53
2019-01-31T06:30:52.470Z,235.83
2019-01-31T06:33:56.189Z,225.33
2019-01-31T06:37:02.538Z,228.20
2019-01-31T06:40:10.647Z,242.53
2019-01-31T06:43:14.659Z,228.60
2019-01-31T06:46:18.372Z,202.87
2019-01-31T06:49:24.328Z,198.17
2019-01-31T06:52:28.007Z,207.23
2019-01-31T06:55:31.683Z,201.03
2019-01-31T06:58:35.406Z,202.70
2019-01-31T07:01:39.033Z,195.23
2019-01-31T07:04:42.779Z,185.03
2019-01-31T07:07:46.403Z,202.20
2019-01-31T07:10:50.010Z,191.67
2019-01-31T07:13:53.681Z,170.97
2019-01-31T07:16:57.372Z,177.97
2019-01-31T07:20:01.022Z,170.50
2019-01-31T07:23:04.683Z,178.53
2019-01-31T07:26:08.320Z,203.30
2019-01-31T07:29:12.073Z,216.63
2019-01-31T07:32:15.704Z,183.70
2019-01-31T07:35:19.549Z,219.33
2019-01-31T07:38:23.184Z,242.90
2019-01-31T07:41:26.878Z,245.87
2019-01-31T07:44:30.770Z,244.10
2019-01-31T07:47:36.751Z,251.27
2019-01-31T07:50:40.035Z,253.43
2019-01-31T07:53:43.673Z,242.70
2019-01-31T07:56:47.395Z,236.03
2019-01-31T07:59:51.095Z,252.40
2019-01-31T08:02:54.742Z,271.50
2019-01-31T08:05:58.468Z,271.57
2019-01-31T08:09:02.660Z,264.70
2019-01-31T08:12:06.353Z,225.77
2019-01-31T08:15:13.255Z,240.00
2019-01-31T08:18:16.946Z,227.70
2019-01-31T08:21:20.751Z,243.40
2019-01-31T08:24:24.442Z,227.77
2019-01-31T08:27:28.107Z,214.03
2019-01-31T08:30:37.873Z,233.30
2019-01-31T08:33:44.219Z,262.60
2019-01-31T08:36:50.858Z,242.10
2019-01-31T08:39:54.517Z,255.80
2019-01-31T08:42:58.214Z,224.03
2019-01-31T08:46:01.968Z,245.63
2019-01-31T08:49:05.740Z,212.57
2019-01-31T08:52:09.457Z,227.17
2019-01-31T08:55:13.104Z,228.50
2019-01-31T08:58:16.966Z,220.97
2019-01-31T09:01:21.554Z,212.13
2019-01-31T09:04:25.249Z,189.17
2019-01-31T09:07:29.327Z,184.57
2019-01-31T09:10:38.757Z,183.07
2019-01-31T09:13:42.411Z,180.73
2019-01-31T09:16:46.098Z,161.80
2019-01-31T09:19:49.732Z,162.13
2019-01-31T09:23:12.935Z,159.33
2019-01-31T09:26:22.275Z,146.73
2019-01-31T09:29:34.813Z,112.77
2019-01-31T09:32:53.735Z,122.43
2019-01-31T09:36:32.088Z,122.57
2019-01-31T09:39:44.727Z,108.00
2019-01-31T09:42:57.284Z,169.20
2019-01-31T09:46:24.633Z,148.30
2019-01-31T09:49:46.312Z,149.67
2019-01-31T09:53:13.348Z,144.23
2019-01-31T09:56:52.503Z,148.90
2019-01-31T10:00:08.290Z,140.83
2019-01-31T10:03:17.629Z,129.33
2019-01-31T10:06:36.010Z,136.30
2019-01-31T10:09:42.829Z,141.47
2019-01-31T10:12:55.373Z,145.57
2019-01-31T10:16:19.681Z,155.90
2019-01-31T10:20:07.441Z,146.10
2019-01-31T10:23:40.733Z,121.30
2019-01-31T10:26:53.050Z,133.50
2019-01-31T10:30:19.579Z,131.27
2019-01-31T10:33:43.034Z,126.17
2019-01-31T10:36:55.747Z,124.17
2019-01-31T10:44:29.340Z,117.73
2019-01-31T10:55:06.611Z,137.13
2019-01-31T11:02:08.515Z,77.87
2019-01-31T11:05:51.457Z,48.40
2019-01-31T11:09:26.363Z,43.40
2019-01-31T11:13:00.868Z,40.40
2019-01-31T11:16:51.545Z,42.80
2019-01-31T11:20:25.062Z,40.70
2019-01-31T11:23:55.264Z,37.27
2019-01-31T11:27:16.473Z,37.37
2019-01-31T11:30:23.320Z,45.43
2019-01-31T11:33:53.145Z,43.00
2019-01-31T11:36:59.507Z,45.03
2019-01-31T11:40:27.290Z,41.17
2019-01-31T11:43:55.200Z,26.23
2019-01-31T11:47:13.980Z,27.63
2019-01-31T11:50:26.389Z,26.97
2019-01-31T11:53:35.724Z,27.03
2019-01-31T11:57:12.631Z,22.40
2019-01-31T12:00:17.896Z,25.47
2019-01-31T12:03:21.633Z,21.73
2019-01-31T12:06:25.363Z,26.10
2019-01-31T12:09:29.169Z,26.97
2019-01-31T12:12:32.894Z,26.20
2019-01-31T12:15:36.617Z,23.17
2019-01-31T12:18:40.267Z,25.20
2019-01-31T12:21:44.009Z,24.63
2019-01-31T12:24:47.641Z,18.33
2019-01-31T12:27:51.260Z,15.70
2019-01-31T12:30:57.771Z,19.07
2019-01-31T12:34:01.519Z,15.67
2019-01-31T12:37:05.194Z,12.90
2019-01-31T12:40:14.425Z,11.00
2019-01-31T12:43:18.098Z,10.07
2019-01-31T12:46:21.954Z,13.13
2019-01-31T12:49:27.761Z,13.37
2019-01-31T12:52:32.235Z,10.43
2019-01-31T12:55:35.917Z,10.27
2019-01-31T12:58:39.889Z,11.20
2019-01-31T13:01:43.571Z,9.47
2019-01-31T13:04:49.436Z,11.10
2019-01-31T13:07:56.313Z,10.63
2019-01-31T13:10:59.993Z,11.27
2019-01-31T13:14:04.392Z,13.20
2019-01-31T13:17:09.965Z,11.07
2019-01-31T13:20:18.041Z,12.60
2019-01-31T13:23:21.994Z,11.80
2019-01-31T13:26:27.101Z,11.90
2019-01-31T13:29:32.138Z,71.60
2019-01-31T13:32:37.533Z,134.80
2019-01-31T13:35:42.264Z,127.40
2019-01-31T13:39:15.360Z,146.20
2019-01-31T13:42:17.463Z,135.87
2019-01-31T13:45:28.648Z,140.90
2019-01-31T13:48:37.591Z,132.40
2019-01-31T13:51:44.235Z,140.00
2019-01-31T13:54:51.136Z,120.33
2019-01-31T13:57:56.128Z,155.80
2019-01-31T14:00:59.883Z,131.93
2019-01-31T14:04:04.956Z,147.50
2019-01-31T14:07:10.885Z,143.67
2019-01-31T14:10:27.932Z,139.27
2019-01-31T14:13:31.762Z,136.70
2019-01-31T14:16:47.192Z,149.30
2019-01-31T14:19:42.914Z,139.10
2019-01-31T14:22:46.656Z,135.90
2019-01-31T14:25:50.424Z,163.93
2019-01-31T14:28:54.146Z,141.03
2019-01-31T14:32:04.508Z,144.33
2019-01-31T14:35:11.069Z,160.43
2019-01-31T14:38:14.862Z,172.50
2019-01-31T14:41:19.968Z,166.93
2019-01-31T14:44:24.902Z,161.97
2019-01-31T14:47:30.324Z,164.30
2019-01-31T14:50:36.337Z,159.07
2019-01-31T14:53:42.360Z,172.90
2019-01-31T14:56:47.122Z,202.03
2019-01-31T14:59:51.719Z,238.67
2019-01-31T15:02:58.703Z,163.63
2019-01-31T15:06:03.494Z,163.43
2019-01-31T15:09:08.814Z,140.37
2019-01-31T15:12:17.127Z,159.80
2019-01-31T15:15:20.931Z,158.40
2019-01-31T15:18:24.744Z,143.00
2019-01-31T15:21:28.622Z,152.43
2019-01-31T15:24:34.012Z,152.53
2019-01-31T15:27:37.873Z,144.93
2019-01-31T15:30:46.882Z,147.77
2019-01-31T15:33:55.612Z,138.37
2019-01-31T15:37:02.086Z,138.03
2019-01-31T15:40:08.150Z,120.57
2019-01-31T15:43:11.902Z,144.13
2019-01-31T15:46:18.086Z,145.57
2019-01-31T15:49:22.283Z,145.00
2019-01-31T15:52:26.762Z,192.37
2019-01-31T15:55:30.841Z,146.13
2019-01-31T15:58:34.750Z,215.60
2019-01-31T16:01:40.214Z,310.13
2019-01-31T16:04:43.981Z,249.33
2019-01-31T16:07:47.699Z,337.27
2019-01-31T16:10:51.483Z,456.87
2019-01-31T16:13:55.312Z,446.07
2019-01-31T16:16:59.097Z,203.63
2019-01-31T16:20:02.911Z,185.93
2019-01-31T16:23:07.140Z,173.43
2019-01-31T16:26:11.118Z,156.80
2019-01-31T16:29:17.844Z,152.63
2019-01-31T16:32:20.908Z,155.37
2019-01-31T16:35:24.647Z,138.60
2019-01-31T16:38:28.795Z,146.83
2019-01-31T16:41:33.351Z,180.57
2019-01-31T16:44:38.849Z,186.13
2019-01-31T16:47:42.696Z,200.87
2019-01-31T16:50:46.499Z,211.73
2019-01-31T16:53:50.378Z,226.50
2019-01-31T16:56:54.223Z,213.97
2019-01-31T16:59:57.982Z,211.60
2019-01-31T17:03:07.196Z,209.67
2019-01-31T17:06:12.638Z,207.67
2019-01-31T17:09:16.485Z,187.13
2019-01-31T17:12:21.529Z,170.13
2019-01-31T17:15:25.350Z,188.10
2019-01-31T17:18:29.128Z,177.03
2019-01-31T17:21:33.209Z,194.97
2019-01-31T17:24:39.506Z,181.17
2019-01-31T17:27:43.353Z,159.00
2019-01-31T17:30:48.670Z,165.17
2019-01-31T17:33:52.803Z,207.67
2019-01-31T17:36:56.803Z,206.60
2019-01-31T17:40:00.646Z,176.20
2019-01-31T17:43:06.591Z,214.90
2019-01-31T17:46:12.180Z,231.20
2019-01-31T17:49:17.714Z,218.70
2019-01-31T17:52:21.702Z,240.20
2019-01-31T17:55:27.879Z,214.83
2019-01-31T17:58:31.778Z,223.77
2019-01-31T18:01:36.175Z,224.93
2019-01-31T18:04:41.614Z,232.80
2019-01-31T18:07:45.335Z,235.97
2019-01-31T18:10:49.354Z,228.83
2019-01-31T18:13:54.842Z,234.80
2019-01-31T18:16:59.509Z,252.17
2019-01-31T18:20:04.423Z,252.97
2019-01-31T18:23:08.316Z,250.10
2019-01-31T18:26:12.164Z,257.27
2019-01-31T18:29:17.475Z,282.30
2019-01-31T18:32:21.313Z,299.13
2019-01-31T18:35:25.133Z,301.63
2019-01-31T18:38:30.725Z,313.53
2019-01-31T18:41:34.460Z,297.97
2019-01-31T18:44:38.310Z,288.33
2019-01-31T18:47:42.438Z,310.67
2019-01-31T18:50:46.338Z,319.17
2019-01-31T18:53:50.293Z,399.47
2019-01-31T18:56:54.101Z,427.40
2019-01-31T18:59:57.932Z,457.00
2019-01-31T19:03:01.652Z,436.43
2019-01-31T19:06:05.495Z,340.73
2019-01-31T19:09:09.432Z,390.23
2019-01-31T19:12:13.376Z,397.10
2019-01-31T19:15:20.527Z,419.53
2019-01-31T19:18:24.458Z,413.93
2019-01-31T19:21:30.394Z,392.77
2019-01-31T19:24:34.335Z,377.37
2019-01-31T19:27:38.115Z,368.00
2019-01-31T19:30:41.895Z,362.17
2019-01-31T19:33:46.635Z,380.10
2019-01-31T19:36:50.497Z,371.30
2019-01-31T19:39:54.263Z,427.03
2019-01-31T19:42:58.159Z,419.87
2019-01-31T19:46:15.162Z,428.00
2019-01-31T19:49:09.921Z,431.73
2019-01-31T19:52:15.558Z,449.20
2019-01-31T19:55:20.091Z,468.53
2019-01-31T19:58:24.167Z,476.80
2019-01-31T20:01:28.059Z,482.33
2019-01-31T20:04:34.671Z,471.73
2019-01-31T20:07:37.306Z,477.53
2019-01-31T20:10:41.116Z,433.33
2019-01-31T20:13:44.894Z,447.77
2019-01-31T20:16:48.926Z,461.23
2019-01-31T20:19:52.712Z,440.97
2019-01-31T20:22:56.816Z,447.67
2019-01-31T20:26:00.701Z,424.60
2019-01-31T20:29:04.712Z,413.23
2019-01-31T20:32:08.665Z,400.23
2019-01-31T20:35:17.330Z,421.43
2019-01-31T20:38:21.129Z,405.50
2019-01-31T20:41:27.311Z,383.73
2019-01-31T20:44:30.362Z,413.27
2019-01-31T20:47:34.253Z,407.37
2019-01-31T20:50:39.119Z,406.43
2019-01-31T20:53:43.018Z,404.67
2019-01-31T20:56:46.803Z,464.07
2019-01-31T20:59:50.659Z,501.20
2019-01-31T21:02:54.878Z,462.40
2019-01-31T21:05:58.686Z,521.25
2019-01-31T21:09:02.481Z,546.97
2019-01-31T21:12:06.498Z,446.00
2019-01-31T21:15:18.808Z,496.60
2019-01-31T21:18:22.583Z,518.13
2019-01-31T21:21:26.429Z,528.97
2019-01-31T21:24:30.329Z,527.10
2019-01-31T21:27:34.077Z,487.67
2019-01-31T21:30:39.291Z,487.97
2019-01-31T21:33:43.022Z,478.30
2019-01-31T21:36:46.896Z,510.53
2019-01-31T21:39:50.734Z,519.17
2019-01-31T21:42:54.530Z,511.90
2019-01-31T21:45:58.316Z,502.70
2019-01-31T21:49:02.264Z,538.50
2019-01-31T21:52:07.920Z,479.00
2019-01-31T21:55:13.040Z,445.53
2019-01-31T21:58:16.815Z,513.40
2019-01-31T22:01:20.547Z,475.23
2019-01-31T22:04:24.320Z,483.63
2019-01-31T22:07:28.051Z,424.27
2019-01-31T22:10:31.833Z,451.70
2019-01-31T22:13:35.619Z,474.20
2019-01-31T22:16:39.400Z,474.57
2019-01-31T22:19:43.157Z,448.90
2019-01-31T22:22:46.935Z,439.90
2019-01-31T22:25:50.831Z,432.07
2019-01-31T22:28:54.650Z,448.73
2019-01-31T22:31:58.798Z,394.27
2019-01-31T22:35:02.590Z,448.50
2019-01-31T22:38:06.431Z,396.07
2019-01-31T22:41:10.434Z,396.43
2019-01-31T22:44:14.408Z,421.93
2019-01-31T22:47:25.950Z,392.30
2019-01-31T22:50:24.134Z,429.87
2019-01-31T22:53:27.942Z,409.40
2019-01-31T22:56:31.812Z,399.83
2019-01-31T22:59:35.619Z,427.83
2019-01-31T23:02:39.443Z,442.50
2019-01-31T23:05:43.304Z,400.33
2019-01-31T23:08:47.070Z,411.50
2019-01-31T23:11:50.844Z,413.03
2019-01-31T23:14:54.618Z,383.93
2019-01-31T23:17:58.968Z,382.47
2019-01-31T23:21:02.758Z,367.37
2019-01-31T23:24:06.524Z,398.27
2019-01-31T23:27:10.308Z,376.73
2019-01-31T23:30:15.955Z,373.93
2019-01-31T23:33:19.830Z,399.33
2019-01-31T23:36:23.591Z,390.63
2019-01-31T23:39:27.330Z,388.70
2019-01-31T23:42:31.119Z,373.27
2019-01-31T23:45:34.835Z,354.77
2019-01-31T23:48:38.600Z,380.37
2019-01-31T23:51:42.324Z,360.93
2019-01-31T23:54:46.155Z,370.13
2019-01-31T23:57:49.901Z,339.93
